sensor_id;sensor_type;location;lat;lon;timestamp;pressure;altitude;pressure_sealevel;temperature;humidity
79366;BME280;68833;53.160;17.920;2023-08-07T00:02:20;99008.10;;;14.14;82.90
79366;BME280;68833;53.160;17.920;2023-08-07T00:04:51;99007.15;;;14.12;83.23
79366;BME280;68833;53.160;17.920;2023-08-07T00:07:22;99008.96;;;14.11;83.19
79366;BME280;68833;53.160;17.920;2023-08-07T00:09:52;99004.28;;;14.13;83.25
79366;BME280;68833;53.160;17.920;2023-08-07T00:12:20;99005.13;;;14.14;83.00
79366;BME280;68833;53.160;17.920;2023-08-07T00:15:18;99011.02;;;14.12;82.91
79366;BME280;68833;53.160;17.920;2023-08-07T00:17:49;99016.80;;;14.10;82.78
79366;BME280;68833;53.160;17.920;2023-08-07T00:20:16;99022.33;;;14.08;83.25
79366;BME280;68833;53.160;17.920;2023-08-07T00:23:04;99020.91;;;14.09;83.15
79366;BME280;68833;53.160;17.920;2023-08-07T00:26:07;99020.27;;;14.08;83.35
79366;BME280;68833;53.160;17.920;2023-08-07T00:28:44;99024.27;;;14.05;82.90
79366;BME280;68833;53.160;17.920;2023-08-07T00:31:21;99030.58;;;14.06;83.45
79366;BME280;68833;53.160;17.920;2023-08-07T00:33:53;99031.27;;;14.07;83.48
79366;BME280;68833;53.160;17.920;2023-08-07T00:36:47;99023.67;;;14.07;83.51
79366;BME280;68833;53.160;17.920;2023-08-07T00:39:27;99019.90;;;14.08;83.38
79366;BME280;68833;53.160;17.920;2023-08-07T00:41:59;99013.78;;;14.06;83.39
79366;BME280;68833;53.160;17.920;2023-08-07T00:44:30;99010.28;;;14.06;83.02
79366;BME280;68833;53.160;17.920;2023-08-07T00:47:03;99011.09;;;14.04;83.22
79366;BME280;68833;53.160;17.920;2023-08-07T00:49:32;99003.38;;;14.03;83.33
79366;BME280;68833;53.160;17.920;2023-08-07T00:52:03;99002.95;;;14.01;83.02
79366;BME280;68833;53.160;17.920;2023-08-07T00:54:34;98995.28;;;13.98;83.43
79366;BME280;68833;53.160;17.920;2023-08-07T00:57:21;99001.22;;;14.00;83.29
79366;BME280;68833;53.160;17.920;2023-08-07T01:00:04;98993.95;;;14.01;83.12
79366;BME280;68833;53.160;17.920;2023-08-07T01:02:38;98993.91;;;13.98;83.30
79366;BME280;68833;53.160;17.920;2023-08-07T01:05:09;98995.89;;;13.97;83.10
79366;BME280;68833;53.160;17.920;2023-08-07T01:07:40;98993.19;;;13.98;83.04
79366;BME280;68833;53.160;17.920;2023-08-07T01:10:08;98993.58;;;14.01;83.16
79366;BME280;68833;53.160;17.920;2023-08-07T01:12:58;98992.86;;;14.05;83.35
79366;BME280;68833;53.160;17.920;2023-08-07T01:15:33;98987.51;;;14.06;83.00
79366;BME280;68833;53.160;17.920;2023-08-07T01:18:10;98985.21;;;14.06;82.86
79366;BME280;68833;53.160;17.920;2023-08-07T01:20:40;98979.83;;;14.04;83.09
79366;BME280;68833;53.160;17.920;2023-08-07T01:23:23;98984.42;;;14.01;83.22
79366;BME280;68833;53.160;17.920;2023-08-07T01:25:52;98987.20;;;13.98;83.09
79366;BME280;68833;53.160;17.920;2023-08-07T01:29:06;98995.55;;;13.97;83.41
79366;BME280;68833;53.160;17.920;2023-08-07T01:32:05;98997.66;;;13.93;83.15
79366;BME280;68833;53.160;17.920;2023-08-07T01:34:48;99001.66;;;13.91;83.23
79366;BME280;68833;53.160;17.920;2023-08-07T01:37:18;99004.48;;;13.91;83.36
79366;BME280;68833;53.160;17.920;2023-08-07T01:39:57;99005.03;;;13.91;82.97
79366;BME280;68833;53.160;17.920;2023-08-07T01:43:01;99004.19;;;13.90;82.85
79366;BME280;68833;53.160;17.920;2023-08-07T01:45:33;99004.73;;;13.90;83.09
79366;BME280;68833;53.160;17.920;2023-08-07T01:48:21;99000.98;;;13.90;83.38
79366;BME280;68833;53.160;17.920;2023-08-07T01:50:50;98999.35;;;13.91;83.35
79366;BME280;68833;53.160;17.920;2023-08-07T01:53:43;98994.79;;;13.91;83.66
79366;BME280;68833;53.160;17.920;2023-08-07T01:56:30;98989.23;;;13.93;83.11
79366;BME280;68833;53.160;17.920;2023-08-07T01:59:28;98990.92;;;13.94;83.23
79366;BME280;68833;53.160;17.920;2023-08-07T02:02:09;98985.33;;;13.93;83.13
79366;BME280;68833;53.160;17.920;2023-08-07T02:05:24;98987.83;;;13.89;83.47
79366;BME280;68833;53.160;17.920;2023-08-07T02:08:22;98985.80;;;13.87;83.40
79366;BME280;68833;53.160;17.920;2023-08-07T02:11:17;98980.89;;;13.86;83.22
79366;BME280;68833;53.160;17.920;2023-08-07T02:13:48;98980.00;;;13.87;83.27
79366;BME280;68833;53.160;17.920;2023-08-07T02:16:37;98982.69;;;13.86;83.26
79366;BME280;68833;53.160;17.920;2023-08-07T02:19:07;98983.11;;;13.85;83.50
79366;BME280;68833;53.160;17.920;2023-08-07T02:21:52;98988.23;;;13.84;83.60
79366;BME280;68833;53.160;17.920;2023-08-07T02:24:21;98984.91;;;13.83;83.26
79366;BME280;68833;53.160;17.920;2023-08-07T02:26:50;98984.42;;;13.86;83.52
79366;BME280;68833;53.160;17.920;2023-08-07T02:29:20;98987.94;;;13.86;83.59
79366;BME280;68833;53.160;17.920;2023-08-07T02:32:03;98977.89;;;13.86;83.48
79366;BME280;68833;53.160;17.920;2023-08-07T02:34:34;98976.13;;;13.87;83.61
79366;BME280;68833;53.160;17.920;2023-08-07T02:37:05;98979.14;;;13.86;83.72
79366;BME280;68833;53.160;17.920;2023-08-07T02:39:38;98979.15;;;13.86;83.38
79366;BME280;68833;53.160;17.920;2023-08-07T02:42:07;98981.98;;;13.86;83.34
79366;BME280;68833;53.160;17.920;2023-08-07T02:44:36;98975.14;;;13.85;83.16
79366;BME280;68833;53.160;17.920;2023-08-07T02:47:09;98968.84;;;13.84;83.33
79366;BME280;68833;53.160;17.920;2023-08-07T02:50:08;98967.61;;;13.80;83.16
79366;BME280;68833;53.160;17.920;2023-08-07T02:52:50;98966.11;;;13.78;83.51
79366;BME280;68833;53.160;17.920;2023-08-07T02:55:17;98968.95;;;13.78;83.35
79366;BME280;68833;53.160;17.920;2023-08-07T02:58:07;98975.71;;;13.77;83.21
79366;BME280;68833;53.160;17.920;2023-08-07T03:00:37;98975.45;;;13.79;83.49
79366;BME280;68833;53.160;17.920;2023-08-07T03:03:12;98975.95;;;13.79;83.11
79366;BME280;68833;53.160;17.920;2023-08-07T03:05:51;98980.69;;;13.76;83.11
79366;BME280;68833;53.160;17.920;2023-08-07T03:08:38;98979.23;;;13.74;83.12
79366;BME280;68833;53.160;17.920;2023-08-07T03:11:10;98983.95;;;13.71;83.08
79366;BME280;68833;53.160;17.920;2023-08-07T03:13:39;98988.70;;;13.71;83.37
79366;BME280;68833;53.160;17.920;2023-08-07T03:16:20;98991.66;;;13.72;83.00
79366;BME280;68833;53.160;17.920;2023-08-07T03:18:48;98993.08;;;13.72;83.39
79366;BME280;68833;53.160;17.920;2023-08-07T03:21:18;98996.61;;;13.72;83.20
79366;BME280;68833;53.160;17.920;2023-08-07T03:24:06;99004.28;;;13.70;83.47
79366;BME280;68833;53.160;17.920;2023-08-07T03:26:34;99010.21;;;13.72;83.38
79366;BME280;68833;53.160;17.920;2023-08-07T03:29:07;99019.04;;;13.72;83.15
79366;BME280;68833;53.160;17.920;2023-08-07T03:31:43;99027.83;;;13.72;83.28
79366;BME280;68833;53.160;17.920;2023-08-07T03:34:12;99022.27;;;13.71;83.15
79366;BME280;68833;53.160;17.920;2023-08-07T03:37:00;99024.98;;;13.69;83.23
79366;BME280;68833;53.160;17.920;2023-08-07T03:39:28;99029.48;;;13.67;83.36
79366;BME280;68833;53.160;17.920;2023-08-07T03:41:57;99032.62;;;13.68;83.27
79366;BME280;68833;53.160;17.920;2023-08-07T03:44:26;99029.44;;;13.68;83.32
79366;BME280;68833;53.160;17.920;2023-08-07T03:47:03;99031.02;;;13.68;83.27
79366;BME280;68833;53.160;17.920;2023-08-07T03:49:33;99034.46;;;13.66;83.51
79366;BME280;68833;53.160;17.920;2023-08-07T03:52:44;99035.68;;;13.67;83.35
79366;BME280;68833;53.160;17.920;2023-08-07T03:55:16;99034.62;;;13.67;83.69
79366;BME280;68833;53.160;17.920;2023-08-07T03:58:07;99036.11;;;13.69;83.26
79366;BME280;68833;53.160;17.920;2023-08-07T04:00:35;99034.02;;;13.69;83.08
79366;BME280;68833;53.160;17.920;2023-08-07T04:03:21;99030.76;;;13.66;83.32
79366;BME280;68833;53.160;17.920;2023-08-07T04:05:51;99026.66;;;13.63;82.87
79366;BME280;68833;53.160;17.920;2023-08-07T04:08:23;99028.70;;;13.61;83.10
79366;BME280;68833;53.160;17.920;2023-08-07T04:11:04;99032.81;;;13.60;83.17
79366;BME280;68833;53.160;17.920;2023-08-07T04:13:35;99035.97;;;13.61;83.42
79366;BME280;68833;53.160;17.920;2023-08-07T04:16:12;99039.82;;;13.61;83.13
79366;BME280;68833;53.160;17.920;2023-08-07T04:19:01;99045.94;;;13.62;83.33
79366;BME280;68833;53.160;17.920;2023-08-07T04:21:38;99047.66;;;13.63;83.09
79366;BME280;68833;53.160;17.920;2023-08-07T04:24:26;99044.66;;;13.63;83.28
79366;BME280;68833;53.160;17.920;2023-08-07T04:26:54;99048.46;;;13.61;82.97
79366;BME280;68833;53.160;17.920;2023-08-07T04:29:42;99047.41;;;13.57;83.04
79366;BME280;68833;53.160;17.920;2023-08-07T04:32:10;99047.13;;;13.56;83.17
79366;BME280;68833;53.160;17.920;2023-08-07T04:34:37;99052.58;;;13.56;83.30
79366;BME280;68833;53.160;17.920;2023-08-07T04:37:05;99055.09;;;13.59;83.51
79366;BME280;68833;53.160;17.920;2023-08-07T04:39:33;99048.38;;;13.59;83.37
79366;BME280;68833;53.160;17.920;2023-08-07T04:42:00;99046.23;;;13.60;83.33
79366;BME280;68833;53.160;17.920;2023-08-07T04:44:27;99047.61;;;13.60;83.37
79366;BME280;68833;53.160;17.920;2023-08-07T04:46:54;99053.91;;;13.58;83.10
79366;BME280;68833;53.160;17.920;2023-08-07T04:49:21;99058.14;;;13.58;83.19
79366;BME280;68833;53.160;17.920;2023-08-07T04:51:49;99063.48;;;13.57;83.06
79366;BME280;68833;53.160;17.920;2023-08-07T04:54:16;99067.71;;;13.57;83.14
79366;BME280;68833;53.160;17.920;2023-08-07T04:56:45;99067.63;;;13.55;82.95
79366;BME280;68833;53.160;17.920;2023-08-07T04:59:13;99072.73;;;13.52;83.45
79366;BME280;68833;53.160;17.920;2023-08-07T05:01:42;99073.54;;;13.49;83.58
79366;BME280;68833;53.160;17.920;2023-08-07T05:04:12;99080.96;;;13.49;83.16
79366;BME280;68833;53.160;17.920;2023-08-07T05:06:42;99081.57;;;13.47;83.41
79366;BME280;68833;53.160;17.920;2023-08-07T05:09:14;99084.71;;;13.48;83.44
79366;BME280;68833;53.160;17.920;2023-08-07T05:11:41;99086.27;;;13.48;83.45
79366;BME280;68833;53.160;17.920;2023-08-07T05:14:08;99089.36;;;13.51;83.38
79366;BME280;68833;53.160;17.920;2023-08-07T05:16:36;99099.11;;;13.53;83.44
79366;BME280;68833;53.160;17.920;2023-08-07T05:19:07;99095.56;;;13.50;83.29
79366;BME280;68833;53.160;17.920;2023-08-07T05:21:34;99098.16;;;13.51;83.21
79366;BME280;68833;53.160;17.920;2023-08-07T05:24:01;99101.34;;;13.51;83.59
79366;BME280;68833;53.160;17.920;2023-08-07T05:26:28;99103.67;;;13.50;83.52
79366;BME280;68833;53.160;17.920;2023-08-07T05:28:56;99099.66;;;13.49;83.83
79366;BME280;68833;53.160;17.920;2023-08-07T05:31:34;99106.17;;;13.49;83.56
79366;BME280;68833;53.160;17.920;2023-08-07T05:34:02;99107.88;;;13.47;83.41
79366;BME280;68833;53.160;17.920;2023-08-07T05:36:29;99110.06;;;13.45;83.44
79366;BME280;68833;53.160;17.920;2023-08-07T05:38:58;99113.15;;;13.43;83.46
79366;BME280;68833;53.160;17.920;2023-08-07T05:41:25;99117.02;;;13.43;83.71
79366;BME280;68833;53.160;17.920;2023-08-07T05:43:55;99117.55;;;13.44;83.74
79366;BME280;68833;53.160;17.920;2023-08-07T05:46:23;99120.38;;;13.44;83.64
79366;BME280;68833;53.160;17.920;2023-08-07T05:48:50;99115.48;;;13.42;83.60
79366;BME280;68833;53.160;17.920;2023-08-07T05:51:20;99119.13;;;13.44;83.78
79366;BME280;68833;53.160;17.920;2023-08-07T05:53:48;99119.09;;;13.45;83.57
79366;BME280;68833;53.160;17.920;2023-08-07T05:56:18;99124.16;;;13.45;83.89
79366;BME280;68833;53.160;17.920;2023-08-07T05:58:46;99127.70;;;13.45;83.78
79366;BME280;68833;53.160;17.920;2023-08-07T06:01:15;99127.88;;;13.45;83.81
79366;BME280;68833;53.160;17.920;2023-08-07T06:03:44;99129.50;;;13.45;83.81
79366;BME280;68833;53.160;17.920;2023-08-07T06:06:14;99130.75;;;13.45;83.92
79366;BME280;68833;53.160;17.920;2023-08-07T06:08:41;99135.23;;;13.46;83.74
79366;BME280;68833;53.160;17.920;2023-08-07T06:11:12;99138.19;;;13.47;83.78
79366;BME280;68833;53.160;17.920;2023-08-07T06:13:40;99141.58;;;13.46;83.62
79366;BME280;68833;53.160;17.920;2023-08-07T06:16:07;99141.63;;;13.45;83.71
79366;BME280;68833;53.160;17.920;2023-08-07T06:18:39;99145.10;;;13.47;83.38
79366;BME280;68833;53.160;17.920;2023-08-07T06:21:11;99150.27;;;13.49;83.80
79366;BME280;68833;53.160;17.920;2023-08-07T06:23:38;99152.61;;;13.52;83.94
79366;BME280;68833;53.160;17.920;2023-08-07T06:26:05;99150.51;;;13.52;83.80
79366;BME280;68833;53.160;17.920;2023-08-07T06:28:35;99152.94;;;13.53;83.56
79366;BME280;68833;53.160;17.920;2023-08-07T06:31:06;99153.54;;;13.51;83.84
79366;BME280;68833;53.160;17.920;2023-08-07T06:33:34;99153.52;;;13.52;83.61
79366;BME280;68833;53.160;17.920;2023-08-07T06:36:02;99155.81;;;13.52;83.65
79366;BME280;68833;53.160;17.920;2023-08-07T06:38:30;99153.01;;;13.52;83.40
79366;BME280;68833;53.160;17.920;2023-08-07T06:40:57;99157.85;;;13.54;83.80
79366;BME280;68833;53.160;17.920;2023-08-07T06:43:24;99154.98;;;13.54;83.77
79366;BME280;68833;53.160;17.920;2023-08-07T06:45:53;99156.30;;;13.56;83.49
79366;BME280;68833;53.160;17.920;2023-08-07T06:48:23;99158.44;;;13.60;84.03
79366;BME280;68833;53.160;17.920;2023-08-07T06:50:50;99160.79;;;13.62;83.51
79366;BME280;68833;53.160;17.920;2023-08-07T06:53:18;99162.16;;;13.63;83.86
79366;BME280;68833;53.160;17.920;2023-08-07T06:55:48;99166.66;;;13.65;83.69
79366;BME280;68833;53.160;17.920;2023-08-07T06:58:15;99169.28;;;13.65;83.26
79366;BME280;68833;53.160;17.920;2023-08-07T07:00:45;99174.41;;;13.65;83.42
79366;BME280;68833;53.160;17.920;2023-08-07T07:03:14;99174.25;;;13.65;83.67
79366;BME280;68833;53.160;17.920;2023-08-07T07:05:41;99175.36;;;13.64;83.33
79366;BME280;68833;53.160;17.920;2023-08-07T07:08:10;99180.92;;;13.65;83.65
79366;BME280;68833;53.160;17.920;2023-08-07T07:10:36;99181.25;;;13.66;83.70
79366;BME280;68833;53.160;17.920;2023-08-07T07:13:05;99182.44;;;13.67;83.56
79366;BME280;68833;53.160;17.920;2023-08-07T07:15:37;99188.43;;;13.67;83.26
79366;BME280;68833;53.160;17.920;2023-08-07T07:18:05;99189.62;;;13.69;83.82
79366;BME280;68833;53.160;17.920;2023-08-07T07:20:32;99194.09;;;13.71;83.95
79366;BME280;68833;53.160;17.920;2023-08-07T07:23:01;99195.61;;;13.73;83.83
79366;BME280;68833;53.160;17.920;2023-08-07T07:25:44;99203.80;;;13.75;83.79
79366;BME280;68833;53.160;17.920;2023-08-07T07:28:14;99203.55;;;13.77;83.32
79366;BME280;68833;53.160;17.920;2023-08-07T07:30:59;99200.67;;;13.77;83.72
79366;BME280;68833;53.160;17.920;2023-08-07T07:33:26;99202.20;;;13.79;83.59
79366;BME280;68833;53.160;17.920;2023-08-07T07:35:54;99203.02;;;13.80;83.54
79366;BME280;68833;53.160;17.920;2023-08-07T07:38:21;99205.73;;;13.82;83.37
79366;BME280;68833;53.160;17.920;2023-08-07T07:40:49;99207.27;;;13.84;83.31
79366;BME280;68833;53.160;17.920;2023-08-07T07:43:16;99210.93;;;13.85;83.41
79366;BME280;68833;53.160;17.920;2023-08-07T07:45:44;99211.56;;;13.86;83.26
79366;BME280;68833;53.160;17.920;2023-08-07T07:48:11;99209.02;;;13.88;83.23
79366;BME280;68833;53.160;17.920;2023-08-07T07:50:38;99217.05;;;13.90;83.26
79366;BME280;68833;53.160;17.920;2023-08-07T07:53:05;99217.65;;;13.92;83.29
79366;BME280;68833;53.160;17.920;2023-08-07T07:55:33;99221.55;;;13.96;82.98
79366;BME280;68833;53.160;17.920;2023-08-07T07:58:01;99227.13;;;14.01;83.22
79366;BME280;68833;53.160;17.920;2023-08-07T08:00:28;99235.62;;;14.05;83.02
79366;BME280;68833;53.160;17.920;2023-08-07T08:02:55;99231.50;;;14.09;83.08
79366;BME280;68833;53.160;17.920;2023-08-07T08:05:22;99231.23;;;14.12;82.98
79366;BME280;68833;53.160;17.920;2023-08-07T08:07:49;99234.85;;;14.14;83.09
79366;BME280;68833;53.160;17.920;2023-08-07T08:10:16;99230.63;;;14.17;82.69
79366;BME280;68833;53.160;17.920;2023-08-07T08:12:43;99236.41;;;14.22;82.57
79366;BME280;68833;53.160;17.920;2023-08-07T08:15:10;99231.64;;;14.25;82.42
79366;BME280;68833;53.160;17.920;2023-08-07T08:17:38;99231.63;;;14.29;82.43
79366;BME280;68833;53.160;17.920;2023-08-07T08:20:06;99233.77;;;14.32;82.50
79366;BME280;68833;53.160;17.920;2023-08-07T08:22:34;99228.92;;;14.34;82.52
79366;BME280;68833;53.160;17.920;2023-08-07T08:25:01;99224.99;;;14.42;82.73
79366;BME280;68833;53.160;17.920;2023-08-07T08:27:31;99228.48;;;14.50;81.90
79366;BME280;68833;53.160;17.920;2023-08-07T08:29:58;99230.81;;;14.57;82.02
79366;BME280;68833;53.160;17.920;2023-08-07T08:32:27;99232.50;;;14.63;81.71
79366;BME280;68833;53.160;17.920;2023-08-07T08:34:55;99243.66;;;14.66;81.22
79366;BME280;68833;53.160;17.920;2023-08-07T08:37:22;99240.81;;;14.70;81.32
79366;BME280;68833;53.160;17.920;2023-08-07T08:39:50;99239.20;;;14.78;80.84
79366;BME280;68833;53.160;17.920;2023-08-07T08:42:17;99242.61;;;14.84;81.44
79366;BME280;68833;53.160;17.920;2023-08-07T08:44:56;99244.08;;;14.90;81.09
79366;BME280;68833;53.160;17.920;2023-08-07T08:47:26;99241.63;;;14.96;80.95
79366;BME280;68833;53.160;17.920;2023-08-07T08:50:08;99247.48;;;15.03;80.46
79366;BME280;68833;53.160;17.920;2023-08-07T08:52:37;99246.31;;;15.09;80.53
79366;BME280;68833;53.160;17.920;2023-08-07T08:55:05;99248.59;;;15.16;80.01
79366;BME280;68833;53.160;17.920;2023-08-07T08:57:34;99246.23;;;15.28;79.28
79366;BME280;68833;53.160;17.920;2023-08-07T09:00:02;99245.85;;;15.42;79.70
79366;BME280;68833;53.160;17.920;2023-08-07T09:02:46;99253.95;;;15.53;79.95
79366;BME280;68833;53.160;17.920;2023-08-07T09:05:14;99246.52;;;15.56;78.79
79366;BME280;68833;53.160;17.920;2023-08-07T09:07:43;99253.02;;;15.67;78.08
79366;BME280;68833;53.160;17.920;2023-08-07T09:10:10;99254.59;;;15.71;78.62
79366;BME280;68833;53.160;17.920;2023-08-07T09:12:49;99254.44;;;15.77;78.11
79366;BME280;68833;53.160;17.920;2023-08-07T09:15:19;99256.41;;;15.84;77.24
79366;BME280;68833;53.160;17.920;2023-08-07T09:17:47;99252.82;;;15.88;77.63
79366;BME280;68833;53.160;17.920;2023-08-07T09:20:14;99264.13;;;15.89;77.71
79366;BME280;68833;53.160;17.920;2023-08-07T09:22:41;99267.89;;;15.88;77.84
79366;BME280;68833;53.160;17.920;2023-08-07T09:25:09;99269.41;;;15.89;77.08
79366;BME280;68833;53.160;17.920;2023-08-07T09:27:40;99269.86;;;15.94;77.66
79366;BME280;68833;53.160;17.920;2023-08-07T09:30:07;99270.17;;;15.98;75.98
79366;BME280;68833;53.160;17.920;2023-08-07T09:32:39;99271.02;;;15.99;76.39
79366;BME280;68833;53.160;17.920;2023-08-07T09:35:06;99278.33;;;16.01;76.38
79366;BME280;68833;53.160;17.920;2023-08-07T09:37:36;99277.80;;;16.01;76.41
79366;BME280;68833;53.160;17.920;2023-08-07T09:40:04;99271.87;;;16.06;75.94
79366;BME280;68833;53.160;17.920;2023-08-07T09:42:31;99270.52;;;16.18;75.89
79366;BME280;68833;53.160;17.920;2023-08-07T09:45:01;99267.73;;;16.26;76.17
79366;BME280;68833;53.160;17.920;2023-08-07T09:47:28;99263.55;;;16.35;74.77
79366;BME280;68833;53.160;17.920;2023-08-07T09:49:55;99266.81;;;16.40;75.18
79366;BME280;68833;53.160;17.920;2023-08-07T09:52:24;99264.80;;;16.42;75.07
79366;BME280;68833;53.160;17.920;2023-08-07T09:54:55;99270.48;;;16.41;74.90
79366;BME280;68833;53.160;17.920;2023-08-07T09:57:24;99269.48;;;16.40;73.98
79366;BME280;68833;53.160;17.920;2023-08-07T09:59:51;99263.15;;;16.36;73.90
79366;BME280;68833;53.160;17.920;2023-08-07T10:03:36;99274.42;;;16.34;74.11
79366;BME280;68833;53.160;17.920;2023-08-07T10:06:04;99279.13;;;16.26;73.48
79366;BME280;68833;53.160;17.920;2023-08-07T10:08:31;99274.65;;;16.20;73.37
79366;BME280;68833;53.160;17.920;2023-08-07T10:11:01;99288.08;;;16.14;73.49
79366;BME280;68833;53.160;17.920;2023-08-07T10:13:29;99293.23;;;16.07;73.26
79366;BME280;68833;53.160;17.920;2023-08-07T10:15:57;99289.31;;;16.01;73.48
79366;BME280;68833;53.160;17.920;2023-08-07T10:18:25;99287.17;;;15.95;73.42
79366;BME280;68833;53.160;17.920;2023-08-07T10:20:52;99282.31;;;15.93;73.87
79366;BME280;68833;53.160;17.920;2023-08-07T10:23:20;99279.64;;;15.93;74.38
79366;BME280;68833;53.160;17.920;2023-08-07T10:25:49;99278.45;;;15.92;74.22
79366;BME280;68833;53.160;17.920;2023-08-07T10:28:19;99285.55;;;15.92;74.47
79366;BME280;68833;53.160;17.920;2023-08-07T10:30:46;99284.13;;;15.92;74.43
79366;BME280;68833;53.160;17.920;2023-08-07T10:33:16;99293.25;;;15.94;74.41
79366;BME280;68833;53.160;17.920;2023-08-07T10:35:47;99296.48;;;15.96;73.77
79366;BME280;68833;53.160;17.920;2023-08-07T10:38:19;99305.20;;;15.96;74.00
79366;BME280;68833;53.160;17.920;2023-08-07T10:40:59;99313.52;;;15.95;73.29
79366;BME280;68833;53.160;17.920;2023-08-07T10:43:30;99328.77;;;15.92;73.28
79366;BME280;68833;53.160;17.920;2023-08-07T10:46:19;99340.66;;;15.88;74.02
79366;BME280;68833;53.160;17.920;2023-08-07T10:48:47;99354.07;;;15.82;73.88
79366;BME280;68833;53.160;17.920;2023-08-07T10:51:20;99360.72;;;15.76;74.62
79366;BME280;68833;53.160;17.920;2023-08-07T10:53:49;99362.95;;;15.71;74.71
79366;BME280;68833;53.160;17.920;2023-08-07T10:56:38;99361.14;;;15.64;75.40
79366;BME280;68833;53.160;17.920;2023-08-07T10:59:09;99364.55;;;15.60;75.67
79366;BME280;68833;53.160;17.920;2023-08-07T11:04:06;99362.19;;;15.61;76.20
79366;BME280;68833;53.160;17.920;2023-08-07T11:06:35;99365.25;;;15.63;76.35
79366;BME280;68833;53.160;17.920;2023-08-07T11:09:04;99370.11;;;15.65;76.41
79366;BME280;68833;53.160;17.920;2023-08-07T11:11:35;99371.14;;;15.70;76.76
79366;BME280;68833;53.160;17.920;2023-08-07T11:14:10;99377.06;;;15.72;76.63
79366;BME280;68833;53.160;17.920;2023-08-07T11:16:38;99376.55;;;15.74;76.48
79366;BME280;68833;53.160;17.920;2023-08-07T11:19:05;99380.14;;;15.77;76.47
79366;BME280;68833;53.160;17.920;2023-08-07T11:21:33;99381.38;;;15.81;76.72
79366;BME280;68833;53.160;17.920;2023-08-07T11:24:01;99383.75;;;15.87;77.54
79366;BME280;68833;53.160;17.920;2023-08-07T11:26:29;99384.09;;;15.90;76.82
79366;BME280;68833;53.160;17.920;2023-08-07T11:28:56;99384.84;;;15.93;77.54
79366;BME280;68833;53.160;17.920;2023-08-07T11:31:24;99377.08;;;15.95;77.79
79366;BME280;68833;53.160;17.920;2023-08-07T11:33:54;99376.23;;;15.98;77.79
79366;BME280;68833;53.160;17.920;2023-08-07T11:36:22;99379.97;;;16.01;77.42
79366;BME280;68833;53.160;17.920;2023-08-07T11:38:49;99384.57;;;16.01;77.21
79366;BME280;68833;53.160;17.920;2023-08-07T11:41:18;99382.67;;;16.01;76.94
79366;BME280;68833;53.160;17.920;2023-08-07T11:43:46;99390.41;;;15.98;76.75
79366;BME280;68833;53.160;17.920;2023-08-07T11:46:15;99396.91;;;15.93;75.80
79366;BME280;68833;53.160;17.920;2023-08-07T11:48:43;99400.15;;;15.88;75.39
79366;BME280;68833;53.160;17.920;2023-08-07T11:51:11;99401.30;;;15.86;75.65
79366;BME280;68833;53.160;17.920;2023-08-07T11:53:40;99401.44;;;15.87;75.32
79366;BME280;68833;53.160;17.920;2023-08-07T11:56:09;99408.55;;;15.90;75.27
79366;BME280;68833;53.160;17.920;2023-08-07T11:58:38;99410.79;;;15.91;74.85
79366;BME280;68833;53.160;17.920;2023-08-07T12:01:09;99411.41;;;15.93;75.73
79366;BME280;68833;53.160;17.920;2023-08-07T12:03:38;99409.21;;;15.94;75.40
79366;BME280;68833;53.160;17.920;2023-08-07T12:06:08;99408.82;;;15.95;74.93
79366;BME280;68833;53.160;17.920;2023-08-07T12:08:41;99408.73;;;15.97;74.92
79366;BME280;68833;53.160;17.920;2023-08-07T12:11:10;99404.36;;;15.99;75.07
79366;BME280;68833;53.160;17.920;2023-08-07T12:13:39;99407.23;;;16.02;74.82
79366;BME280;68833;53.160;17.920;2023-08-07T12:16:08;99406.57;;;16.04;74.90
79366;BME280;68833;53.160;17.920;2023-08-07T12:18:36;99408.40;;;16.07;75.21
79366;BME280;68833;53.160;17.920;2023-08-07T12:21:07;99407.51;;;16.10;74.56
79366;BME280;68833;53.160;17.920;2023-08-07T12:23:35;99406.91;;;16.15;73.36
79366;BME280;68833;53.160;17.920;2023-08-07T12:26:03;99409.86;;;16.22;73.15
79366;BME280;68833;53.160;17.920;2023-08-07T12:28:34;99409.27;;;16.30;73.49
79366;BME280;68833;53.160;17.920;2023-08-07T12:31:02;99403.15;;;16.42;73.83
79366;BME280;68833;53.160;17.920;2023-08-07T12:33:29;99403.86;;;16.55;72.90
79366;BME280;68833;53.160;17.920;2023-08-07T12:35:58;99397.54;;;16.67;72.27
79366;BME280;68833;53.160;17.920;2023-08-07T12:38:26;99394.42;;;16.76;71.81
79366;BME280;68833;53.160;17.920;2023-08-07T12:40:53;99397.20;;;16.79;71.12
79366;BME280;68833;53.160;17.920;2023-08-07T12:43:20;99396.11;;;16.80;70.24
79366;BME280;68833;53.160;17.920;2023-08-07T12:45:47;99397.84;;;16.81;70.89
79366;BME280;68833;53.160;17.920;2023-08-07T12:48:14;99395.39;;;16.80;70.70
79366;BME280;68833;53.160;17.920;2023-08-07T12:50:41;99393.83;;;16.77;70.71
79366;BME280;68833;53.160;17.920;2023-08-07T12:53:08;99394.21;;;16.73;69.46
79366;BME280;68833;53.160;17.920;2023-08-07T12:55:36;99398.02;;;16.71;68.67
79366;BME280;68833;53.160;17.920;2023-08-07T12:58:02;99394.85;;;16.71;68.70
79366;BME280;68833;53.160;17.920;2023-08-07T13:00:29;99402.59;;;16.69;68.78
79366;BME280;68833;53.160;17.920;2023-08-07T13:02:58;99396.67;;;16.66;68.32
79366;BME280;68833;53.160;17.920;2023-08-07T13:05:28;99401.15;;;16.63;67.80
79366;BME280;68833;53.160;17.920;2023-08-07T13:07:55;99409.61;;;16.57;67.86
79366;BME280;68833;53.160;17.920;2023-08-07T13:10:25;99408.27;;;16.53;67.60
79366;BME280;68833;53.160;17.920;2023-08-07T13:12:55;99409.66;;;16.49;67.41
79366;BME280;68833;53.160;17.920;2023-08-07T13:15:22;99402.89;;;16.47;68.22
79366;BME280;68833;53.160;17.920;2023-08-07T13:17:49;99400.64;;;16.46;68.89
79366;BME280;68833;53.160;17.920;2023-08-07T13:20:16;99402.11;;;16.48;68.69